Accueil
METAR-TAF:

METAR-TAF

Aéroports :

Bastia, France

Aéroport de Bastia Poretta

latitude: 42-33N, longitude: 009-29E, altitude: 8 m

Observation

Le bulletin a été fait il y a 32 minutes, à 04:30 UTC
Vent 1 kt de direction variable
Température 20°C
Humidité 64%
Pression 1016 hPa
Visibilité 10 km ou plus
pas de nuages en-dessous de 1500 mètres et pas de cumulonimbus.

METAR: LFKB 180430Z VRB01KT CAVOK 20/13 Q1016 NOSIG

Heure: 07:02 (05:02 UTC)

Prévision

Le bulletin a été fait il y a 3 heures et 2 minutes, à 02:00 UTC
Prévision valable du 18 à 03 UTC au 19 à 03 UTC
Vent 3 kt de direction variable
Visibilité 10 km ou plus
pas de nuages en-dessous de 1500 mètres et pas de cumulonimbus.
Evoluant progressivement
du 18 à 08 UTC au 18 à 10 UTC
Vent 6 kt de nord-est
Quelques nuages à une hauteur de 3000 ft

TAF: LFKB 180200Z 1803/1903 VRB03KT CAVOK BECMG 1808/1810 05006KT FEW030 TX30/1812Z TN20/1803Z

Observations et prévisions météorologiques de plus de 4000 aéroports (messages METAR et TAF).

Les stations disponibles sont représentées par des disques jaunes et rouges sur la carte.

Passer la souris dessus pour voir le nom de la station.

Cliquer dessus pour voir les observations et prévisions météorologiques.

Pour changer de carte: cliquez sur les boutons verts avec une croix noire pour zoomer, sur le bouton vert avec un tiret pour effectuer un zoom arrière, ou sur les flèches vertes pour les cartes adjacentes.


METAR-TAF: